createdAt,value
2023-02-14T00:00:29.337Z,82.58
2023-02-14T00:02:57.119Z,82.45
2023-02-14T00:05:23.754Z,83.36
2023-02-14T00:07:50.475Z,83.00
2023-02-14T00:10:17.364Z,83.47
2023-02-14T00:12:43.879Z,83.91
2023-02-14T00:15:22.892Z,83.33
2023-02-14T00:17:54.734Z,83.19
2023-02-14T00:20:22.384Z,83.93
2023-02-14T00:22:49.216Z,84.18
2023-02-14T00:25:16.373Z,84.45
2023-02-14T00:27:42.937Z,84.51
2023-02-14T00:30:11.341Z,84.76
2023-02-14T00:32:42.065Z,84.36
2023-02-14T00:35:09.631Z,85.20
2023-02-14T00:37:36.170Z,84.08
2023-02-14T00:40:02.637Z,84.08
2023-02-14T00:42:29.235Z,84.15
2023-02-14T00:44:55.790Z,84.36
2023-02-14T00:47:22.323Z,84.22
2023-02-14T00:49:48.825Z,84.79
2023-02-14T00:52:15.377Z,84.58
2023-02-14T00:54:41.860Z,84.90
2023-02-14T00:57:08.340Z,84.61
2023-02-14T00:59:34.808Z,84.80
2023-02-14T01:02:01.284Z,85.51
2023-02-14T01:04:27.834Z,85.00
2023-02-14T01:06:54.258Z,85.33
2023-02-14T01:09:20.711Z,85.31
2023-02-14T01:11:48.706Z,85.59
2023-02-14T01:14:15.742Z,85.05
2023-02-14T01:16:42.232Z,84.61
2023-02-14T01:19:09.374Z,85.02
2023-02-14T01:21:36.339Z,84.87
2023-02-14T01:24:06.723Z,85.11
2023-02-14T01:26:33.892Z,85.33
2023-02-14T01:29:00.380Z,85.35
2023-02-14T01:31:33.708Z,84.60
2023-02-14T01:34:00.442Z,85.48
2023-02-14T01:36:38.792Z,85.30
2023-02-14T01:39:09.075Z,84.80
2023-02-14T01:41:37.841Z,85.13
2023-02-14T01:44:16.907Z,84.82
2023-02-14T01:46:45.369Z,84.91
2023-02-14T01:49:14.682Z,84.36
2023-02-14T01:51:47.026Z,84.21
2023-02-14T01:54:13.690Z,83.95
2023-02-14T01:56:49.251Z,83.40
2023-02-14T01:59:21.205Z,83.30
2023-02-14T02:01:50.121Z,84.54
2023-02-14T02:04:22.691Z,84.50
2023-02-14T02:06:55.434Z,84.56
2023-02-14T02:09:32.716Z,84.72
2023-02-14T02:11:59.520Z,84.65
2023-02-14T02:14:26.043Z,84.92
2023-02-14T02:17:36.898Z,84.05
2023-02-14T02:20:39.319Z,84.53
2023-02-14T02:23:24.529Z,84.23
2023-02-14T02:26:28.612Z,84.07
2023-02-14T02:29:19.985Z,83.88
2023-02-14T02:31:58.814Z,83.34
2023-02-14T02:34:25.356Z,84.12
2023-02-14T02:37:00.551Z,83.92
2023-02-14T02:39:35.819Z,84.88
2023-02-14T02:42:34.620Z,84.22
2023-02-14T02:45:22.035Z,85.14
2023-02-14T02:48:09.843Z,84.91
2023-02-14T02:51:02.628Z,84.95
2023-02-14T02:53:48.587Z,84.14
2023-02-14T02:56:41.250Z,84.59
2023-02-14T02:59:24.449Z,84.78
2023-02-14T03:01:58.444Z,84.43
2023-02-14T03:04:45.949Z,84.43
2023-02-14T03:07:31.570Z,85.02
2023-02-14T03:10:00.591Z,84.79
2023-02-14T03:12:30.183Z,84.38
2023-02-14T03:15:02.791Z,84.74
2023-02-14T03:17:54.244Z,85.15
2023-02-14T03:20:28.432Z,84.77
2023-02-14T03:23:17.484Z,85.12
2023-02-14T03:26:17.238Z,84.14
2023-02-14T03:29:15.761Z,84.77
2023-02-14T03:31:57.532Z,84.76
2023-02-14T03:34:33.181Z,85.18
2023-02-14T03:37:10.692Z,85.35
2023-02-14T03:39:39.776Z,85.02
2023-02-14T03:42:31.111Z,85.04
2023-02-14T03:45:00.402Z,85.89
2023-02-14T03:47:31.391Z,85.08
2023-02-14T03:50:13.311Z,85.45
2023-02-14T03:52:41.087Z,85.13
2023-02-14T03:55:09.451Z,84.24
2023-02-14T03:57:45.609Z,84.63
2023-02-14T04:00:12.958Z,84.51
2023-02-14T04:02:44.228Z,84.97
2023-02-14T04:05:21.388Z,85.04
2023-02-14T04:07:51.582Z,85.13
2023-02-14T04:10:19.819Z,84.90
2023-02-14T04:12:46.839Z,85.28
2023-02-14T04:15:14.501Z,84.99
2023-02-14T04:18:00.168Z,84.95
2023-02-14T04:20:27.441Z,85.14
2023-02-14T04:22:54.337Z,84.79
2023-02-14T04:25:21.844Z,84.55
2023-02-14T04:27:48.720Z,84.43
2023-02-14T04:30:17.896Z,85.18
2023-02-14T04:32:44.503Z,84.45
2023-02-14T04:35:11.030Z,84.39
2023-02-14T04:37:37.728Z,85.37
2023-02-14T04:40:04.749Z,84.67
2023-02-14T04:42:31.317Z,84.36
2023-02-14T04:44:57.970Z,84.16
2023-02-14T04:47:25.034Z,84.64
2023-02-14T04:49:51.604Z,85.34
2023-02-14T04:52:18.152Z,85.21
2023-02-14T04:54:44.615Z,85.23
2023-02-14T04:57:11.148Z,85.06
2023-02-14T04:59:37.611Z,84.95
2023-02-14T05:02:04.371Z,85.37
2023-02-14T05:04:30.904Z,85.17
2023-02-14T05:06:57.385Z,86.25
2023-02-14T05:09:23.950Z,86.01
2023-02-14T05:11:50.443Z,85.28
2023-02-14T05:14:16.898Z,85.31
2023-02-14T05:16:43.414Z,86.14
2023-02-14T05:19:09.949Z,86.37
2023-02-14T05:21:36.432Z,85.98
2023-02-14T05:24:02.958Z,86.08
2023-02-14T05:26:29.858Z,86.62
2023-02-14T05:28:56.629Z,86.12
2023-02-14T05:31:23.175Z,86.35
2023-02-14T05:33:49.866Z,85.89
2023-02-14T05:36:16.626Z,85.62
2023-02-14T05:38:43.065Z,85.81
2023-02-14T05:41:10.723Z,85.77
2023-02-14T05:43:37.274Z,85.72
2023-02-14T05:46:03.885Z,86.07
2023-02-14T05:48:30.877Z,86.15
2023-02-14T05:50:57.627Z,86.09
2023-02-14T05:53:24.344Z,86.08
2023-02-14T05:55:50.804Z,86.28
2023-02-14T05:58:17.320Z,86.13
2023-02-14T06:00:43.779Z,86.34
2023-02-14T06:03:10.256Z,86.79
2023-02-14T06:05:36.704Z,86.59
2023-02-14T06:08:03.324Z,86.04
2023-02-14T06:10:29.923Z,85.62
2023-02-14T06:12:56.759Z,86.44
2023-02-14T06:15:23.571Z,86.22
2023-02-14T06:17:57.631Z,86.71
2023-02-14T06:20:25.344Z,86.43
2023-02-14T06:22:53.292Z,86.68
2023-02-14T06:25:20.466Z,86.16
2023-02-14T06:27:49.286Z,86.52
2023-02-14T06:30:17.202Z,85.71
2023-02-14T06:32:43.746Z,85.87
2023-02-14T06:35:10.305Z,86.28
2023-02-14T06:37:38.611Z,86.65
2023-02-14T06:40:05.809Z,86.26
2023-02-14T06:42:32.297Z,86.36
2023-02-14T06:44:58.867Z,86.73
2023-02-14T06:47:25.388Z,86.10
2023-02-14T06:49:51.902Z,86.52
2023-02-14T06:52:18.443Z,87.17
2023-02-14T06:54:44.948Z,86.79
2023-02-14T06:57:11.502Z,86.93
2023-02-14T06:59:38.043Z,86.13
2023-02-14T07:02:04.513Z,86.59
2023-02-14T07:04:31.040Z,87.33
2023-02-14T07:06:58.275Z,87.49
2023-02-14T07:09:24.778Z,87.68
2023-02-14T07:11:51.477Z,88.06
2023-02-14T07:14:17.965Z,87.81
2023-02-14T07:16:44.410Z,87.55
2023-02-14T07:19:11.037Z,88.06
2023-02-14T07:21:37.592Z,87.82
2023-02-14T07:24:04.147Z,88.45
2023-02-14T07:26:30.642Z,88.34
2023-02-14T07:28:57.170Z,88.70
2023-02-14T07:31:23.899Z,88.79
2023-02-14T07:33:51.923Z,88.77
2023-02-14T07:36:18.659Z,88.83
2023-02-14T07:38:45.267Z,88.47
2023-02-14T07:41:11.744Z,87.99
2023-02-14T07:43:39.622Z,88.44
2023-02-14T07:46:06.783Z,88.73
2023-02-14T07:48:34.479Z,87.95
2023-02-14T07:51:01.660Z,88.10
2023-02-14T07:53:28.431Z,88.26
2023-02-14T07:55:54.951Z,88.26
2023-02-14T07:58:21.415Z,88.70
2023-02-14T08:00:47.931Z,88.99
2023-02-14T08:03:14.907Z,88.82
2023-02-14T08:05:42.117Z,89.83
2023-02-14T08:08:08.911Z,89.59
2023-02-14T08:10:35.417Z,89.76
2023-02-14T08:13:02.207Z,89.80
2023-02-14T08:15:52.554Z,89.62
2023-02-14T08:18:21.157Z,89.80
2023-02-14T08:20:51.085Z,89.59
2023-02-14T08:23:18.761Z,89.96
2023-02-14T08:25:46.179Z,89.63
2023-02-14T08:28:13.793Z,89.44
2023-02-14T08:30:40.983Z,89.97
2023-02-14T08:33:07.521Z,89.81
2023-02-14T08:35:34.680Z,89.79
2023-02-14T08:38:01.251Z,89.58
2023-02-14T08:40:28.638Z,90.03
2023-02-14T08:42:55.120Z,90.62
2023-02-14T08:45:21.886Z,90.66
2023-02-14T08:47:48.383Z,90.61
2023-02-14T08:50:17.366Z,90.06
2023-02-14T08:52:44.454Z,90.23
2023-02-14T08:55:12.639Z,89.94
2023-02-14T08:57:40.082Z,90.12
2023-02-14T09:00:07.571Z,89.96
2023-02-14T09:02:34.491Z,89.94
2023-02-14T09:05:01.178Z,90.01
2023-02-14T09:07:27.795Z,89.85
2023-02-14T09:09:54.405Z,89.54
2023-02-14T09:12:20.977Z,89.45
2023-02-14T09:14:47.452Z,88.96
2023-02-14T09:17:15.069Z,89.01
2023-02-14T09:19:42.451Z,88.91
2023-02-14T09:22:10.301Z,88.68
2023-02-14T09:24:38.410Z,88.87
2023-02-14T09:27:05.916Z,88.67
2023-02-14T09:29:32.524Z,88.26
2023-02-14T09:32:01.211Z,88.03
2023-02-14T09:34:29.356Z,88.00
2023-02-14T09:36:55.865Z,88.14
2023-02-14T09:39:22.542Z,87.79
2023-02-14T09:42:13.564Z,87.89
2023-02-14T09:44:41.557Z,87.91
2023-02-14T09:47:40.236Z,88.88
2023-02-14T09:50:13.892Z,89.37
2023-02-14T09:52:40.472Z,88.78
2023-02-14T09:55:13.435Z,88.18
2023-02-14T09:58:06.044Z,87.67
2023-02-14T10:00:38.591Z,87.14
2023-02-14T10:03:40.416Z,87.47
2023-02-14T10:06:15.940Z,87.16
2023-02-14T10:09:09.360Z,87.13
2023-02-14T10:11:36.332Z,87.22
2023-02-14T10:14:16.772Z,87.42
2023-02-14T10:16:49.144Z,86.97
2023-02-14T10:19:22.422Z,86.84
2023-02-14T10:21:56.977Z,86.23
2023-02-14T10:24:23.440Z,86.00
2023-02-14T10:26:50.903Z,85.82
2023-02-14T10:29:19.659Z,85.12
2023-02-14T10:31:57.664Z,85.21
2023-02-14T10:34:35.547Z,84.88
2023-02-14T10:37:34.734Z,84.97
2023-02-14T10:40:17.515Z,84.57
2023-02-14T10:43:21.834Z,84.24
2023-02-14T10:46:13.496Z,84.36
2023-02-14T10:48:52.092Z,83.05
2023-02-14T10:51:33.513Z,82.46
2023-02-14T10:54:18.660Z,82.11
2023-02-14T10:56:51.175Z,81.58
2023-02-14T10:59:26.982Z,81.17
2023-02-14T11:01:55.296Z,81.13
2023-02-14T11:04:24.860Z,81.11
2023-02-14T11:06:52.659Z,80.79
2023-02-14T11:09:20.388Z,79.75
2023-02-14T11:11:59.384Z,80.22
2023-02-14T11:14:28.219Z,79.97
2023-02-14T11:16:55.835Z,79.13
2023-02-14T11:19:28.379Z,79.51
2023-02-14T11:21:57.658Z,79.06
2023-02-14T11:24:36.082Z,78.62
2023-02-14T11:27:17.238Z,79.17
2023-02-14T11:29:48.075Z,77.56
2023-02-14T11:32:22.670Z,77.99
2023-02-14T11:35:19.611Z,77.17
2023-02-14T11:37:50.988Z,77.03
2023-02-14T11:40:43.587Z,76.36
2023-02-14T11:43:14.560Z,76.32
2023-02-14T11:45:46.195Z,76.44
2023-02-14T11:48:31.543Z,76.43
2023-02-14T11:51:15.014Z,76.50
2023-02-14T11:53:45.022Z,76.14
2023-02-14T11:56:12.714Z,75.99
2023-02-14T11:58:46.244Z,75.15
2023-02-14T12:01:22.025Z,74.65
2023-02-14T12:03:49.646Z,74.58
2023-02-14T12:06:28.575Z,74.36
2023-02-14T12:09:11.729Z,74.18
2023-02-14T12:11:38.790Z,73.02
2023-02-14T12:14:05.849Z,73.09
2023-02-14T12:16:47.405Z,72.08
2023-02-14T12:19:20.007Z,70.68
2023-02-14T12:22:03.434Z,71.48
2023-02-14T12:24:35.161Z,70.78
2023-02-14T12:27:21.073Z,69.46
2023-02-14T12:29:54.433Z,68.79
2023-02-14T12:32:29.957Z,69.52
2023-02-14T12:35:06.543Z,70.02
2023-02-14T12:38:04.302Z,70.72
2023-02-14T12:41:05.852Z,69.91
2023-02-14T12:43:48.021Z,68.25
2023-02-14T12:49:00.929Z,68.62
2023-02-14T12:51:36.178Z,68.22
2023-02-14T12:54:08.360Z,67.77
2023-02-14T12:56:56.124Z,64.96
2023-02-14T12:59:34.135Z,64.52
2023-02-14T13:02:22.791Z,64.73
2023-02-14T13:04:52.254Z,64.33
2023-02-14T13:07:54.788Z,64.05
2023-02-14T13:10:30.566Z,64.99
2023-02-14T13:13:31.308Z,65.39
2023-02-14T13:15:58.415Z,65.50
2023-02-14T13:19:05.411Z,65.19
2023-02-14T13:21:37.101Z,65.72
2023-02-14T13:24:20.492Z,65.97
2023-02-14T13:26:53.713Z,65.45
2023-02-14T13:29:27.460Z,64.14
2023-02-14T13:31:58.734Z,63.88
2023-02-14T13:34:32.818Z,63.47
2023-02-14T13:37:02.488Z,62.68
2023-02-14T13:39:37.943Z,62.26
2023-02-14T13:42:06.388Z,61.55
2023-02-14T13:44:38.694Z,61.14
2023-02-14T13:47:07.693Z,61.36
2023-02-14T13:49:40.616Z,59.75
2023-02-14T13:52:07.176Z,59.68
2023-02-14T13:54:47.090Z,60.67
2023-02-14T13:57:28.133Z,59.83
2023-02-14T14:00:16.423Z,58.91
2023-02-14T14:03:03.826Z,58.69
2023-02-14T14:05:30.434Z,58.19
2023-02-14T14:08:16.808Z,58.34
2023-02-14T14:10:49.000Z,57.43
2023-02-14T14:13:40.329Z,56.72
2023-02-14T14:16:27.928Z,56.87
2023-02-14T14:19:09.528Z,54.86
2023-02-14T14:21:44.609Z,54.24
2023-02-14T14:24:24.202Z,52.02
2023-02-14T14:27:03.459Z,51.18
2023-02-14T14:29:36.843Z,52.48
2023-02-14T14:32:10.333Z,52.82
2023-02-14T14:34:37.352Z,51.79
2023-02-14T14:37:16.036Z,50.95
2023-02-14T14:39:42.590Z,48.71
2023-02-14T14:42:18.396Z,49.97
2023-02-14T14:45:04.324Z,48.69
2023-02-14T14:47:45.454Z,46.64
2023-02-14T14:50:18.726Z,46.45
2023-02-14T14:52:51.376Z,46.03
2023-02-14T14:55:39.446Z,46.29
2023-02-14T14:58:27.424Z,44.77
2023-02-14T15:00:53.899Z,44.10
2023-02-14T15:03:25.341Z,44.11
2023-02-14T15:06:01.994Z,42.86
2023-02-14T15:08:36.626Z,43.05
2023-02-14T15:11:08.118Z,42.95
2023-02-14T15:13:54.950Z,43.69
2023-02-14T15:16:40.602Z,44.27
2023-02-14T15:19:10.630Z,44.43
2023-02-14T15:21:40.269Z,44.12
2023-02-14T15:24:13.252Z,44.92
2023-02-14T15:26:42.706Z,45.89
2023-02-14T15:29:22.411Z,45.47
2023-02-14T15:31:49.925Z,43.19
2023-02-14T15:34:23.623Z,43.50
2023-02-14T15:36:56.580Z,47.22
2023-02-14T15:39:30.019Z,47.93
2023-02-14T15:41:56.563Z,49.33
2023-02-14T15:44:25.330Z,49.15
2023-02-14T15:46:59.720Z,51.18
2023-02-14T15:49:37.492Z,51.13
2023-02-14T15:52:06.316Z,51.34
2023-02-14T15:54:39.285Z,51.83
2023-02-14T15:57:16.515Z,52.01
2023-02-14T15:59:43.282Z,53.10
2023-02-14T16:02:37.770Z,54.67
2023-02-14T16:05:17.720Z,55.12
2023-02-14T16:08:04.049Z,55.93
2023-02-14T16:10:35.641Z,56.73
2023-02-14T16:13:06.585Z,57.20
2023-02-14T16:15:37.799Z,58.21
2023-02-14T16:18:18.111Z,58.51
2023-02-14T16:20:48.899Z,59.29
2023-02-14T16:23:27.258Z,59.39
2023-02-14T16:25:57.224Z,60.51
2023-02-14T16:28:27.845Z,60.86
2023-02-14T16:30:56.871Z,61.46
2023-02-14T16:33:26.617Z,62.11
2023-02-14T16:35:54.534Z,62.19
2023-02-14T16:38:21.824Z,62.39
2023-02-14T16:40:51.608Z,62.52
2023-02-14T16:43:20.231Z,63.50
2023-02-14T16:45:47.774Z,63.88
2023-02-14T16:48:15.918Z,64.37
2023-02-14T16:50:43.360Z,64.92
2023-02-14T16:53:28.856Z,64.65
2023-02-14T16:55:57.260Z,65.13
2023-02-14T16:58:29.243Z,65.64
2023-02-14T17:00:58.590Z,66.13
2023-02-14T17:03:25.529Z,66.59
2023-02-14T17:05:52.618Z,67.22
2023-02-14T17:08:19.186Z,67.19
2023-02-14T17:10:48.586Z,67.25
2023-02-14T17:13:19.842Z,67.49
2023-02-14T17:15:46.772Z,68.36
2023-02-14T17:18:17.747Z,68.31
2023-02-14T17:20:44.260Z,68.73
2023-02-14T17:23:10.776Z,68.74
2023-02-14T17:25:37.427Z,69.33
2023-02-14T17:28:04.194Z,69.46
2023-02-14T17:30:30.993Z,69.40
2023-02-14T17:32:57.596Z,69.38
2023-02-14T17:35:24.189Z,69.61
2023-02-14T17:37:50.740Z,70.14
2023-02-14T17:40:17.307Z,70.49
2023-02-14T17:42:43.840Z,72.08
2023-02-14T17:45:11.768Z,71.62
2023-02-14T17:47:40.504Z,71.39
2023-02-14T17:50:07.759Z,70.54
2023-02-14T17:52:34.435Z,71.40
2023-02-14T17:55:01.023Z,72.06
2023-02-14T17:57:27.499Z,72.33
2023-02-14T17:59:54.025Z,72.31
2023-02-14T18:02:20.588Z,71.96
2023-02-14T18:04:48.397Z,71.44
2023-02-14T18:07:14.904Z,72.41
2023-02-14T18:09:41.497Z,72.35
2023-02-14T18:12:14.671Z,72.81
2023-02-14T18:14:41.815Z,73.43
2023-02-14T18:17:08.457Z,73.21
2023-02-14T18:19:34.966Z,73.26
2023-02-14T18:22:01.621Z,72.86
2023-02-14T18:24:28.149Z,73.62
2023-02-14T18:26:55.423Z,73.77
2023-02-14T18:29:22.686Z,74.26
2023-02-14T18:31:49.614Z,73.92
2023-02-14T18:34:16.188Z,74.48
2023-02-14T18:36:42.708Z,75.13
2023-02-14T18:39:09.764Z,75.15
2023-02-14T18:41:36.918Z,74.32
2023-02-14T18:44:03.630Z,75.18
2023-02-14T18:46:33.157Z,75.96
2023-02-14T18:48:59.743Z,75.92
2023-02-14T18:51:29.655Z,75.63
2023-02-14T18:53:58.999Z,75.65
2023-02-14T18:56:28.944Z,75.27
2023-02-14T18:59:00.983Z,75.00
2023-02-14T19:01:34.371Z,75.39
2023-02-14T19:04:01.320Z,76.06
2023-02-14T19:06:30.472Z,76.56
2023-02-14T19:08:58.074Z,76.97
2023-02-14T19:11:28.055Z,76.66
2023-02-14T19:13:57.717Z,78.61
2023-02-14T19:16:34.228Z,78.32
2023-02-14T19:19:02.697Z,76.23
2023-02-14T19:21:33.607Z,76.71
2023-02-14T19:24:00.999Z,75.89
2023-02-14T19:26:32.890Z,75.86
2023-02-14T19:29:02.247Z,76.00
2023-02-14T19:31:29.434Z,76.02
2023-02-14T19:33:56.613Z,76.22
2023-02-14T19:36:23.966Z,76.64
2023-02-14T19:38:52.766Z,77.79
2023-02-14T19:41:21.655Z,78.16
2023-02-14T19:43:49.059Z,78.43
2023-02-14T19:46:17.936Z,78.76
2023-02-14T19:48:45.219Z,79.32
2023-02-14T19:51:17.226Z,79.51
2023-02-14T19:53:43.987Z,78.86
2023-02-14T19:56:11.103Z,78.70
2023-02-14T19:58:37.731Z,77.53
2023-02-14T20:01:05.791Z,77.61
2023-02-14T20:03:32.763Z,77.33
2023-02-14T20:05:59.216Z,77.39
2023-02-14T20:08:25.675Z,76.89
2023-02-14T20:10:52.179Z,77.47
2023-02-14T20:13:18.676Z,78.52
2023-02-14T20:15:45.626Z,79.37
2023-02-14T20:18:12.207Z,79.32
2023-02-14T20:20:57.391Z,79.43
2023-02-14T20:23:23.912Z,78.68
2023-02-14T20:25:50.429Z,78.99
2023-02-14T20:28:16.863Z,79.38
2023-02-14T20:30:43.422Z,79.46
2023-02-14T20:33:10.016Z,79.47
2023-02-14T20:35:40.395Z,79.55
2023-02-14T20:38:07.726Z,79.33
2023-02-14T20:40:39.203Z,79.30
2023-02-14T20:43:06.036Z,79.56
2023-02-14T20:45:33.017Z,79.87
2023-02-14T20:48:04.001Z,80.19
2023-02-14T20:50:31.213Z,79.36
2023-02-14T20:52:58.311Z,79.42
2023-02-14T20:55:27.118Z,79.63
2023-02-14T20:57:54.009Z,78.29
2023-02-14T21:00:20.614Z,77.66
2023-02-14T21:02:47.119Z,77.57
2023-02-14T21:05:18.306Z,78.63
2023-02-14T21:07:44.797Z,78.94
2023-02-14T21:10:11.328Z,79.57
2023-02-14T21:12:38.652Z,79.93
2023-02-14T21:15:06.919Z,79.88
2023-02-14T21:17:33.882Z,79.75
2023-02-14T21:20:00.394Z,79.30
2023-02-14T21:22:26.910Z,80.13
2023-02-14T21:24:53.642Z,80.01
2023-02-14T21:27:20.112Z,79.74
2023-02-14T21:29:46.620Z,80.12
2023-02-14T21:32:13.283Z,80.23
2023-02-14T21:34:39.853Z,80.83
2023-02-14T21:37:06.438Z,80.45
2023-02-14T21:39:35.722Z,80.31
2023-02-14T21:42:02.426Z,81.30
2023-02-14T21:44:47.419Z,80.62
2023-02-14T21:47:14.241Z,80.77
2023-02-14T21:49:59.238Z,79.90
2023-02-14T21:52:25.731Z,79.96
2023-02-14T21:54:52.486Z,79.68
2023-02-14T21:57:19.057Z,79.89
2023-02-14T21:59:45.568Z,80.01
2023-02-14T22:02:12.448Z,80.78
2023-02-14T22:04:39.008Z,80.72
2023-02-14T22:07:05.816Z,80.14
2023-02-14T22:09:32.295Z,80.49
2023-02-14T22:11:58.806Z,80.19
2023-02-14T22:14:25.445Z,80.06
2023-02-14T22:16:51.985Z,79.76
2023-02-14T22:19:18.480Z,80.45
2023-02-14T22:21:45.235Z,80.38
2023-02-14T22:24:12.641Z,80.65
2023-02-14T22:26:40.852Z,80.93
2023-02-14T22:29:10.381Z,81.17
2023-02-14T22:31:42.713Z,80.19
2023-02-14T22:34:12.335Z,80.47
2023-02-14T22:36:39.200Z,80.60
2023-02-14T22:39:06.428Z,80.02
2023-02-14T22:41:37.719Z,80.40
2023-02-14T22:44:05.835Z,80.26
2023-02-14T22:46:33.128Z,81.21
2023-02-14T22:48:59.608Z,81.57
2023-02-14T22:51:35.356Z,81.43
2023-02-14T22:54:14.583Z,81.89
2023-02-14T22:56:49.169Z,82.38
2023-02-14T22:59:20.718Z,83.19
2023-02-14T23:01:48.980Z,82.75
2023-02-14T23:04:17.267Z,83.08
2023-02-14T23:06:44.231Z,82.33
2023-02-14T23:09:12.202Z,81.94
2023-02-14T23:11:41.031Z,81.27
2023-02-14T23:14:26.540Z,81.09
2023-02-14T23:17:11.302Z,81.32
2023-02-14T23:19:56.285Z,81.32
2023-02-14T23:22:26.761Z,81.07
2023-02-14T23:24:55.446Z,81.24
2023-02-14T23:27:24.244Z,81.09
2023-02-14T23:29:50.744Z,81.33
2023-02-14T23:32:17.397Z,81.67
2023-02-14T23:34:44.977Z,81.70
2023-02-14T23:37:13.563Z,81.87
2023-02-14T23:39:40.811Z,81.78
2023-02-14T23:42:10.460Z,82.63
2023-02-14T23:44:37.286Z,82.48
2023-02-14T23:47:06.768Z,82.44
2023-02-14T23:49:35.393Z,82.51
2023-02-14T23:52:03.382Z,82.24
2023-02-14T23:54:29.914Z,82.00
2023-02-14T23:56:57.516Z,81.58
2023-02-14T23:59:24.425Z,81.76
